Time;durP1;ratioP1;P1;durP2;ratioP2;P2;SDS_P1;SDS_P2;PMS_P1;PMS_P2;Temp;Humidity;BMP_temperature;BMP_pressure;BME280_temperature;BME280_humidity;BME280_pressure;Samples;Min_cycle;Max_cycle;Signal;HPM_P1;HPM_P2
2021/11/13 00:02:20;;;;;;;18.52;12.48;;;;;;;21.90;48.85;100517.81;7393028;19;20470;-63
2021/11/13 00:05:09;;;;;;;18.33;12.82;;;;;;;21.94;48.63;100513.94;7393365;19;20025;-63
2021/11/13 00:07:57;;;;;;;17.60;12.18;;;;;;;21.96;48.69;100519.13;7394401;19;20021;-63
2021/11/13 00:10:45;;;;;;;17.33;11.65;;;;;;;22.00;48.72;100524.09;7392843;19;20414;-64
2021/11/13 00:13:33;;;;;;;19.23;12.95;;;;;;;22.01;48.53;100519.59;7393349;19;20025;-63
2021/11/13 00:16:23;;;;;;;18.35;11.55;;;;;;;22.01;48.63;100515.13;7392659;19;20180;-63
2021/11/13 00:19:11;;;;;;;17.83;11.73;;;;;;;22.03;48.50;100509.66;7393860;19;20049;-63
2021/11/13 00:21:58;;;;;;;16.00;12.20;;;;;;;22.03;48.77;100513.16;7393354;19;20029;-63
2021/11/13 00:24:46;;;;;;;17.23;11.20;;;;;;;22.06;49.03;100512.94;7394662;19;20021;-63
2021/11/13 00:27:34;;;;;;;17.05;12.23;;;;;;;22.08;48.42;100513.69;7394548;19;20025;-63
2021/11/13 00:30:22;;;;;;;17.08;11.88;;;;;;;22.08;48.25;100511.03;7393653;19;20014;-62
2021/11/13 00:33:13;;;;;;;19.58;12.07;;;;;;;22.10;48.77;100511.75;7391745;19;20042;-63
2021/11/13 00:36:00;;;;;;;16.60;11.48;;;;;;;22.11;48.59;100510.75;7392275;19;20483;-63
2021/11/13 00:38:48;;;;;;;15.48;10.77;;;;;;;22.13;48.76;100507.97;7393870;19;20029;-63
2021/11/13 00:41:36;;;;;;;17.98;11.65;;;;;;;22.12;48.27;100507.13;7390762;19;20383;-63
2021/11/13 00:44:23;;;;;;;17.38;11.68;;;;;;;22.12;48.39;100512.47;7394362;19;20506;-62
2021/11/13 00:47:11;;;;;;;17.35;11.52;;;;;;;22.13;48.38;100505.28;7391546;19;20026;-61
2021/11/13 00:50:01;;;;;;;14.65;11.02;;;;;;;22.14;48.68;100505.16;7393490;19;20021;-63
2021/11/13 00:52:49;;;;;;;15.40;10.80;;;;;;;22.15;48.24;100504.19;7389993;19;20025;-63
2021/11/13 00:55:36;;;;;;;15.30;11.27;;;;;;;22.18;48.31;100505.75;7385008;19;20112;-64
2021/11/13 00:58:24;;;;;;;15.60;10.30;;;;;;;22.18;48.49;100497.75;7385901;19;20033;-62
2021/11/13 01:01:12;;;;;;;16.60;11.50;;;;;;;22.17;48.48;100502.25;7384159;19;20483;-61
2021/11/13 01:04:00;;;;;;;17.60;11.40;;;;;;;22.18;48.57;100497.75;7386258;19;20045;-61
2021/11/13 01:06:50;;;;;;;14.50;10.73;;;;;;;22.20;48.46;100485.97;7384741;19;20123;-61
2021/11/13 01:09:38;;;;;;;16.60;10.57;;;;;;;22.21;48.20;100494.81;7386169;19;20030;-61
2021/11/13 01:12:26;;;;;;;15.68;10.90;;;;;;;22.17;48.64;100485.38;7383294;19;20018;-62
2021/11/13 01:15:15;;;;;;;15.70;10.85;;;;;;;22.12;48.66;100496.44;7384191;19;20135;-61
2021/11/13 01:18:02;;;;;;;15.77;10.98;;;;;;;22.08;48.53;100484.31;7385623;19;20025;-61
2021/11/13 01:20:50;;;;;;;15.20;10.73;;;;;;;22.07;48.26;100484.41;7385142;19;20025;-61
2021/11/13 01:23:40;;;;;;;14.88;9.88;;;;;;;22.05;48.77;100479.22;7385879;19;20021;-61
2021/11/13 01:26:28;;;;;;;16.50;10.88;;;;;;;22.06;48.22;100478.22;7383766;19;20368;-62
2021/11/13 01:29:15;;;;;;;14.35;10.48;;;;;;;22.06;48.40;100470.22;7385098;19;20018;-62
2021/11/13 01:32:03;;;;;;;16.77;11.30;;;;;;;22.09;48.61;100469.16;7383668;19;20372;-61
2021/11/13 01:34:51;;;;;;;14.82;10.73;;;;;;;22.09;48.50;100470.00;7384313;19;20115;-62
2021/11/13 01:37:39;;;;;;;15.20;10.25;;;;;;;22.12;48.42;100461.72;7384349;19;20671;-62
2021/11/13 01:40:30;;;;;;;14.07;10.73;;;;;;;22.13;48.38;100466.09;7384546;19;20025;-62
2021/11/13 01:43:17;;;;;;;13.52;9.43;;;;;;;22.16;48.01;100468.50;7383938;19;20035;-62
2021/11/13 01:46:06;;;;;;;14.23;9.68;;;;;;;22.18;47.85;100469.22;7384129;19;20528;-62
2021/11/13 01:48:54;;;;;;;16.17;9.85;;;;;;;22.19;47.92;100459.38;7384676;19;20023;-63
2021/11/13 01:51:45;;;;;;;13.85;9.88;;;;;;;22.18;47.47;100461.22;7381481;19;20026;-62
2021/11/13 01:54:36;;;;;;;;;;;;;;;22.15;48.20;100448.13;7386373;19;20026;-62
2021/11/13 01:57:33;;;;;;;12.52;9.20;;;;;;;22.16;47.25;100452.47;7385506;19;19934;-65
2021/11/13 02:00:26;;;;;;;12.68;9.25;;;;;;;22.15;47.48;100452.63;7387285;19;20614;-64
2021/11/13 02:03:14;;;;;;;14.65;9.45;;;;;;;22.16;47.73;100451.63;7387713;19;20020;-63
2021/11/13 02:06:02;;;;;;;12.98;9.27;;;;;;;22.20;47.70;100453.91;7383097;19;20518;-63
2021/11/13 02:08:50;;;;;;;14.10;10.07;;;;;;;22.21;47.13;100442.25;7385547;19;20046;-63
2021/11/13 02:11:37;;;;;;;13.70;9.30;;;;;;;22.20;47.30;100445.91;7386310;19;20499;-62
2021/11/13 02:14:29;;;;;;;17.77;10.13;;;;;;;22.23;47.46;100441.28;7386323;19;20021;-64
2021/11/13 02:17:17;;;;;;;13.18;9.23;;;;;;;22.25;47.34;100442.00;7383538;19;20033;-63
2021/11/13 02:20:24;;;;;;;12.00;8.30;;;;;;;22.19;47.31;100444.22;7386233;19;20022;-64
2021/11/13 02:23:14;;;;;;;12.77;9.10;;;;;;;22.25;47.77;100442.84;7386814;19;20525;-63
2021/11/13 02:26:03;;;;;;;11.73;9.00;;;;;;;22.25;47.33;100447.34;7378358;19;20025;-59
2021/11/13 02:28:54;;;;;;;12.45;8.52;;;;;;;22.26;47.61;100454.38;7386298;19;20254;-59
2021/11/13 02:31:44;;;;;;;11.68;8.13;;;;;;;22.26;47.58;100455.22;7385237;19;20026;-60
2021/11/13 02:34:32;;;;;;;13.70;8.63;;;;;;;22.27;47.20;100443.56;7385988;19;20052;-59
2021/11/13 02:37:28;;;;;;;12.80;8.10;;;;;;;22.26;47.08;100446.34;7384091;19;20026;-58
2021/11/13 02:40:16;;;;;;;11.88;8.43;;;;;;;22.27;47.13;100451.56;7386134;19;20025;-58
2021/11/13 02:43:04;;;;;;;12.65;8.65;;;;;;;22.29;47.56;100451.47;7385438;19;20275;-58
2021/11/13 02:48:19;;;;;;;11.43;7.80;;;;;;;22.29;47.66;100457.66;7385242;19;20014;-59
2021/11/13 02:51:08;;;;;;;10.55;7.32;;;;;;;22.30;47.66;100447.81;7384224;19;20048;-59
2021/11/13 02:53:59;;;;;;;11.00;7.57;;;;;;;22.30;47.61;100439.81;7385676;19;20029;-62
2021/11/13 02:56:47;;;;;;;13.30;8.60;;;;;;;22.30;47.34;100431.78;7383150;19;20379;-59
2021/11/13 02:59:35;;;;;;;11.48;8.18;;;;;;;22.32;47.61;100435.19;7383716;19;20362;-59
2021/11/13 03:02:25;;;;;;;11.27;7.97;;;;;;;22.33;47.61;100432.38;7345174;19;20532;-59
2021/11/13 03:05:28;;;;;;;11.80;7.93;;;;;;;22.32;47.22;100429.84;7385153;19;20025;-58
2021/11/13 03:13:45;;;;;;;12.77;7.28;;;;;;;22.35;47.34;100401.03;7362381;19;20022;-58
2021/11/13 03:16:32;;;;;;;11.98;7.72;;;;;;;22.37;47.37;100400.91;7382397;19;20500;-61
2021/11/13 03:19:20;;;;;;;12.32;8.57;;;;;;;22.35;47.54;100417.06;7384510;19;20021;-60
2021/11/13 03:22:07;;;;;;;13.55;8.32;;;;;;;22.36;47.29;100408.06;7358687;19;20352;-60
2021/11/13 03:27:46;;;;;;;11.73;7.45;;;;;;;22.37;47.30;100403.59;7346172;19;20116;-58
2021/11/13 03:30:36;;;;;;;;;;;;;;;22.37;47.35;100403.59;7385518;19;20026;-59
2021/11/13 03:33:24;;;;;;;9.80;7.20;;;;;;;22.39;47.45;100401.63;7382761;19;20039;-59
2021/11/13 03:38:58;;;;;;;10.65;8.00;;;;;;;22.36;47.19;100385.88;7379321;19;20049;-58
2021/11/13 03:41:45;;;;;;;12.57;7.88;;;;;;;22.36;47.56;100380.53;7384061;19;20033;-60
2021/11/13 03:44:33;;;;;;;11.02;7.72;;;;;;;22.33;47.72;100395.00;7383393;19;20034;-59
2021/11/13 03:47:32;;;;;;;9.32;7.35;;;;;;;22.33;47.75;100399.47;7353759;19;20015;-58
2021/11/13 03:50:20;;;;;;;13.27;8.37;;;;;;;22.33;47.70;100395.00;7384578;19;20030;-59
2021/11/13 03:53:08;;;;;;;12.05;8.05;;;;;;;22.33;47.58;100394.16;7382207;19;20053;-59
2021/11/13 03:55:56;;;;;;;11.18;7.97;;;;;;;22.30;47.73;100403.25;7380541;19;20048;-59
2021/11/13 03:58:44;;;;;;;12.63;8.27;;;;;;;22.29;47.56;100390.03;7383827;19;20109;-58
2021/11/13 04:01:31;;;;;;;12.15;8.23;;;;;;;22.29;47.76;100385.56;7383364;19;20060;-58
2021/11/13 04:04:21;;;;;;;12.43;8.63;;;;;;;22.29;47.53;100368.69;7383416;19;20024;-58
2021/11/13 04:07:09;;;;;;;10.70;7.55;;;;;;;22.30;47.34;100375.72;7382630;19;20030;-59
2021/11/13 04:12:33;;;;;;;11.70;9.00;;;;;;;22.30;47.39;100357.88;7374285;19;20180;-58
2021/11/13 04:15:20;;;;;;;10.70;7.85;;;;;;;22.33;47.46;100383.47;7368958;19;20030;-55
2021/11/13 04:18:08;;;;;;;14.30;8.82;;;;;;;22.29;47.24;100377.53;7382670;19;20028;-56
2021/11/13 04:20:58;;;;;;;10.55;7.82;;;;;;;22.28;47.42;100382.97;7383036;19;20026;-57
2021/11/13 04:23:46;;;;;;;12.25;8.25;;;;;;;22.28;46.84;100381.19;7381921;19;20037;-55
2021/11/13 04:29:36;;;;;;;12.80;8.38;;;;;;;22.24;47.24;100365.53;7388894;19;20082;-58
2021/11/13 04:32:28;;;;;;;12.00;8.82;;;;;;;22.23;47.65;100377.19;7389581;19;20029;-59
2021/11/13 04:43:51;;;;;;;11.55;7.82;;;;;;;22.27;47.60;100387.47;7369369;19;20018;-58
2021/11/13 04:46:39;;;;;;;12.20;9.03;;;;;;;22.30;47.65;100397.94;7388264;19;20548;-58
2021/11/13 04:49:26;;;;;;;12.27;8.82;;;;;;;22.29;47.28;100392.72;7371565;19;20021;-55
2021/11/13 04:52:14;;;;;;;11.70;8.43;;;;;;;22.29;48.04;100404.25;7388871;19;20426;-55
2021/11/13 04:57:37;;;;;;;13.45;9.23;;;;;;;22.28;47.24;100389.19;7386796;19;20017;-58
2021/11/13 05:03:16;;;;;;;13.57;9.00;;;;;;;22.26;47.63;100374.25;7367179;19;20026;-56
2021/11/13 05:06:03;;;;;;;12.90;8.45;;;;;;;22.27;47.14;100384.81;7358828;19;20025;-58
2021/11/13 05:08:51;;;;;;;14.18;9.18;;;;;;;22.28;47.67;100388.31;7389706;19;20512;-58
2021/11/13 05:11:38;;;;;;;13.75;9.70;;;;;;;22.27;47.67;100381.28;7386831;19;20442;-58
2021/11/13 05:14:26;;;;;;;13.13;9.05;;;;;;;22.28;47.47;100373.19;7388882;19;20025;-58
2021/11/13 05:17:13;;;;;;;10.52;7.97;;;;;;;22.29;47.76;100368.69;7342029;19;20060;-56
2021/11/13 05:20:07;;;;;;;13.32;8.70;;;;;;;22.26;47.48;100375.09;7387862;19;20017;-58
2021/11/13 05:22:54;;;;;;;10.95;8.10;;;;;;;22.28;47.57;100375.84;7387005;19;20193;-58
2021/11/13 05:28:17;;;;;;;13.55;9.27;;;;;;;22.29;47.75;100366.00;7371659;19;20358;-60
2021/11/13 05:31:12;;;;;;;14.27;9.27;;;;;;;22.31;47.45;100380.06;7379174;19;20025;-58
2021/11/13 05:33:59;;;;;;;13.90;9.65;;;;;;;22.32;47.17;100363.06;7388814;19;20056;-58
2021/11/13 05:42:16;;;;;;;13.13;9.35;;;;;;;22.32;47.24;100374.59;7360156;19;20369;-55
2021/11/13 05:45:05;;;;;;;11.77;8.82;;;;;;;22.33;47.36;100378.97;7388349;19;20106;-57
2021/11/13 05:53:17;;;;;;;13.43;9.38;;;;;;;22.33;47.07;100386.13;7386534;19;20467;-58
2021/11/13 06:02:12;;;;;;;12.13;9.63;;;;;;;22.35;47.01;100370.81;7372705;19;20478;-59
2021/11/13 06:05:03;;;;;;;16.67;10.45;;;;;;;22.34;47.19;100367.31;7361523;19;20055;-58
2021/11/13 06:16:47;;;;;;;14.60;10.70;;;;;;;22.33;46.70;100403.00;7383989;19;20025;-55
2021/11/13 06:19:38;;;;;;;15.55;10.82;;;;;;;22.32;46.71;100405.81;7385532;19;20042;-54
2021/11/13 06:27:49;;;;;;;15.02;10.82;;;;;;;22.34;46.50;100411.84;7361068;19;20611;-57
2021/11/13 06:33:36;;;;;;;15.35;10.70;;;;;;;22.35;46.70;100421.56;7372619;19;20383;-59
2021/11/13 06:42:12;;;;;;;15.10;10.73;;;;;;;22.34;46.48;100401.19;7373839;19;20026;-56
2021/11/13 06:45:00;;;;;;;15.57;10.68;;;;;;;22.36;46.92;100408.06;7373253;19;20600;-59
2021/11/13 06:50:23;;;;;;;16.70;11.10;;;;;;;22.36;46.70;100407.22;7352653;19;20136;-60
2021/11/13 06:53:11;;;;;;;15.60;11.20;;;;;;;22.31;47.11;100399.63;7385281;19;20038;-59
2021/11/13 06:55:58;;;;;;;14.50;9.85;;;;;;;22.29;46.98;100414.06;7383831;19;20111;-59
2021/11/13 06:58:49;;;;;;;14.55;9.52;;;;;;;22.28;46.65;100399.88;7385077;19;20403;-60
2021/11/13 07:01:37;;;;;;;14.80;10.50;;;;;;;22.29;47.17;100406.06;7383662;19;20106;-61
2021/11/13 07:04:24;;;;;;;12.40;9.23;;;;;;;22.31;46.97;100409.44;7384784;19;20024;-59
2021/11/13 07:07:12;;;;;;;15.40;9.82;;;;;;;22.31;47.53;100410.31;7384835;19;20030;-59
2021/11/13 07:12:35;;;;;;;15.50;9.15;;;;;;;22.28;47.58;100417.69;7360363;19;20055;-58
2021/11/13 07:15:31;;;;;;;17.52;10.48;;;;;;;22.30;47.15;100413.09;7384796;19;20090;-59
2021/11/13 07:18:18;;;;;;;12.98;9.40;;;;;;;22.33;47.55;100415.50;7385415;19;20029;-55
2021/11/13 07:21:09;;;;;;;17.48;9.30;;;;;;;22.35;47.66;100421.56;7382414;19;20033;-57
2021/11/13 07:23:57;;;;;;;16.10;9.82;;;;;;;22.32;47.32;100416.50;7382150;19;20031;-59
2021/11/13 07:26:51;;;;;;;19.88;9.43;;;;;;;22.30;47.77;100415.78;7381339;19;20404;-60
2021/11/13 07:29:44;;;;;;;15.38;9.63;;;;;;;22.31;47.39;100412.13;7382384;19;20035;-60
2021/11/13 07:32:35;;;;;;;23.65;11.35;;;;;;;22.29;47.44;100406.06;7381199;19;20024;-61
2021/11/13 07:35:22;;;;;;;21.65;10.77;;;;;;;22.27;46.94;100413.34;7382931;19;20468;-60
2021/11/13 07:38:10;;;;;;;25.63;16.15;;;;;;;22.25;45.10;100412.63;7381085;19;20107;-57
2021/11/13 07:40:58;;;;;;;32.20;15.63;;;;;;;22.21;44.65;100407.53;7381746;19;20267;-63
2021/11/13 07:43:45;;;;;;;29.38;16.20;;;;;;;22.17;44.23;100405.25;7379508;19;20025;-60
2021/11/13 07:46:34;;;;;;;31.92;17.33;;;;;;;22.06;43.84;100402.63;7380944;19;20028;-61
2021/11/13 07:49:24;;;;;;;29.88;15.90;;;;;;;22.01;43.93;100403.00;7381496;19;20501;-60
2021/11/13 07:52:12;;;;;;;40.85;16.45;;;;;;;21.96;43.95;100394.53;7380130;19;20034;-53
2021/11/13 07:55:00;;;;;;;30.25;16.65;;;;;;;21.94;44.23;100398.31;7379396;19;20520;-60
2021/11/13 07:57:49;;;;;;;28.92;16.48;;;;;;;21.89;43.99;100398.69;7377529;19;20060;-59
2021/11/13 08:00:38;;;;;;;34.33;15.80;;;;;;;21.82;44.63;100386.81;7380847;19;20061;-59
2021/11/13 08:03:25;;;;;;;27.33;14.98;;;;;;;21.80;44.74;100384.28;7386218;19;20041;-62
2021/11/13 08:06:16;;;;;;;28.98;15.63;;;;;;;21.77;44.51;100389.03;7387846;19;20030;-59
2021/11/13 08:09:03;;;;;;;24.73;16.55;;;;;;;21.75;44.66;100374.97;7387476;19;20021;-58
2021/11/13 08:11:51;;;;;;;29.77;14.68;;;;;;;21.71;44.75;100373.53;7386608;19;20021;-58
2021/11/13 08:14:38;;;;;;;27.88;14.35;;;;;;;21.61;45.13;100363.59;7388039;19;20068;-58
2021/11/13 08:17:26;;;;;;;26.33;16.17;;;;;;;21.55;45.04;100380.13;7385710;19;20026;-58
2021/11/13 08:20:15;;;;;;;23.90;14.65;;;;;;;21.51;45.16;100378.69;7388273;19;20490;-58
2021/11/13 08:23:08;;;;;;;24.00;14.40;;;;;;;21.48;45.42;100372.75;7384814;19;20025;-58
2021/11/13 08:25:57;;;;;;;28.25;14.98;;;;;;;21.41;45.58;100374.22;7387194;19;20052;-59
2021/11/13 08:28:44;;;;;;;24.65;14.50;;;;;;;21.39;45.98;100374.34;7387511;19;20035;-58
2021/11/13 08:31:32;;;;;;;22.67;13.90;;;;;;;21.39;45.77;100379.69;7386527;19;20021;-58
2021/11/13 08:34:20;;;;;;;23.27;14.65;;;;;;;21.39;45.99;100385.00;7387395;19;20880;-59
2021/11/13 08:37:07;;;;;;;22.88;13.35;;;;;;;21.40;45.98;100375.19;7386013;19;20053;-59
2021/11/13 08:39:58;;;;;;;25.08;14.98;;;;;;;21.41;46.09;100374.22;7387767;19;20511;-59
2021/11/13 08:42:46;;;;;;;22.42;13.80;;;;;;;21.43;46.04;100386.44;7384548;19;20118;-59
2021/11/13 08:45:33;;;;;;;24.77;13.93;;;;;;;21.41;45.82;100383.06;7387572;19;20033;-59
2021/11/13 08:48:21;;;;;;;23.52;14.52;;;;;;;21.39;45.41;100371.66;7386441;19;20057;-53
2021/11/13 08:51:09;;;;;;;22.65;13.30;;;;;;;21.36;46.34;100379.94;7386893;19;20048;-54
2021/11/13 08:53:57;;;;;;;26.27;15.63;;;;;;;21.42;46.28;100376.75;7387369;19;20046;-53
2021/11/13 08:56:47;;;;;;;22.50;14.00;;;;;;;21.46;45.82;100375.56;7386079;19;20388;-54
2021/11/13 08:59:35;;;;;;;28.25;15.00;;;;;;;21.45;46.05;100381.00;7385466;19;20022;-55
2021/11/13 09:02:26;;;;;;;27.60;14.55;;;;;;;21.47;46.24;100377.25;7384676;19;20113;-54
2021/11/13 09:05:14;;;;;;;20.38;14.30;;;;;;;21.47;45.66;100387.91;7387119;19;20021;-54
2021/11/13 09:08:02;;;;;;;26.92;13.30;;;;;;;21.41;46.00;100391.06;7384846;19;20284;-53
2021/11/13 09:10:51;;;;;;;36.60;15.10;;;;;;;21.38;46.19;100388.66;7386516;19;20506;-52
2021/11/13 09:13:41;;;;;;;35.05;15.80;;;;;;;21.27;45.59;100391.34;7384046;19;20237;-53
2021/11/13 09:16:29;;;;;;;24.30;14.80;;;;;;;21.19;46.23;100385.75;7386035;19;20028;-52
2021/11/13 09:19:17;;;;;;;28.38;14.82;;;;;;;21.18;46.17;100376.03;7386666;19;20064;-49
2021/11/13 09:22:05;;;;;;;27.27;14.32;;;;;;;21.22;46.62;100377.47;7384578;19;20037;-51
2021/11/13 09:24:53;;;;;;;29.17;14.50;;;;;;;21.22;46.34;100377.47;7385777;19;20048;-50
2021/11/13 09:27:43;;;;;;;27.55;14.50;;;;;;;21.27;46.59;100373.53;7383303;19;20041;-53
2021/11/13 09:30:35;;;;;;;30.90;14.48;;;;;;;21.31;47.08;100371.47;7386061;19;20449;-52
2021/11/13 09:33:24;;;;;;;25.25;15.50;;;;;;;21.39;46.48;100368.16;7386471;19;20474;-51
2021/11/13 09:36:12;;;;;;;26.17;15.20;;;;;;;21.38;46.89;100361.13;7385762;19;20267;-51
2021/11/13 09:38:59;;;;;;;23.95;13.60;;;;;;;21.50;47.50;100360.16;7385591;19;20541;-48
2021/11/13 09:41:49;;;;;;;25.55;14.30;;;;;;;21.57;47.68;100354.16;7383078;19;20025;-51
2021/11/13 09:44:37;;;;;;;29.80;15.27;;;;;;;21.57;47.71;100359.50;7385641;19;20025;-49
2021/11/13 09:47:28;;;;;;;28.20;14.52;;;;;;;21.59;47.89;100354.88;7383656;19;20388;-52
2021/11/13 09:50:17;;;;;;;27.00;15.52;;;;;;;21.59;48.21;100354.03;7385285;19;20020;-48
2021/11/13 09:53:06;;;;;;;25.27;14.57;;;;;;;21.55;47.96;100353.44;7383145;19;20899;-51
2021/11/13 09:55:56;;;;;;;26.52;15.70;;;;;;;21.57;48.51;100354.16;7384289;19;20083;-50
2021/11/13 09:58:45;;;;;;;27.35;15.23;;;;;;;21.67;48.13;100350.75;7381986;19;20541;-48
2021/11/13 10:01:33;;;;;;;37.42;17.70;;;;;;;21.76;48.34;100344.63;7383826;19;20038;-48
2021/11/13 10:04:24;;;;;;;30.73;15.82;;;;;;;21.80;48.31;100343.41;7384792;19;20029;-52
2021/11/13 10:07:11;;;;;;;29.92;15.32;;;;;;;21.81;48.77;100348.63;7381648;19;20039;-50
2021/11/13 10:10:03;;;;;;;23.35;15.40;;;;;;;21.84;49.05;100343.00;7381245;19;20021;-53
2021/11/13 10:12:53;;;;;;;27.80;15.43;;;;;;;21.90;48.72;100347.84;7385586;19;20021;-55
2021/11/13 10:15:42;;;;;;;32.35;15.02;;;;;;;21.94;48.87;100335.09;7386446;19;20025;-56
2021/11/13 10:18:31;;;;;;;27.73;14.20;;;;;;;22.00;49.63;100331.91;7384659;19;20025;-58
2021/11/13 10:21:24;;;;;;;30.10;14.80;;;;;;;22.01;49.12;100338.94;7386250;19;20026;-59
2021/11/13 10:24:15;;;;;;;24.98;15.65;;;;;;;22.04;49.42;100341.38;7386150;19;20013;-54
2021/11/13 10:27:07;;;;;;;26.70;15.00;;;;;;;22.05;48.80;100337.72;7382857;19;20336;-59
2021/11/13 10:29:54;;;;;;;30.08;16.20;;;;;;;22.10;48.51;100330.19;7387313;19;20505;-52
2021/11/13 10:32:58;;;;;;;25.92;17.38;;;;;;;22.05;48.51;100336.88;7382859;19;20029;-60
2021/11/13 10:35:48;;;;;;;35.50;16.98;;;;;;;22.08;48.68;100334.81;7384492;19;20110;-51
2021/11/13 10:38:42;;;;;;;38.60;17.60;;;;;;;22.06;48.88;100331.41;7386134;19;20038;-55
2021/11/13 10:41:30;;;;;;;36.92;17.67;;;;;;;22.07;49.16;100324.25;7385836;19;20043;-57
2021/11/13 10:44:20;;;;;;;32.53;16.52;;;;;;;22.09;48.90;100322.31;7385740;19;20028;-58
2021/11/13 10:47:13;;;;;;;38.00;17.73;;;;;;;22.08;49.53;100313.47;7385208;19;20016;-52
2021/11/13 10:50:18;;;;;;;30.33;16.52;;;;;;;22.11;49.19;100313.19;7386637;19;20039;-52
2021/11/13 10:53:08;;;;;;;49.05;17.73;;;;;;;22.14;49.43;100312.09;7384152;19;20038;-54
2021/11/13 10:56:13;;;;;;;43.20;16.88;;;;;;;22.17;49.30;100312.66;7386625;19;20045;-56
2021/11/13 10:59:03;;;;;;;37.88;18.00;;;;;;;22.24;49.66;100312.13;7383620;19;20046;-58
2021/11/13 11:01:51;;;;;;;40.20;19.67;;;;;;;22.36;50.19;100324.44;7383515;19;20025;-56
2021/11/13 11:04:41;;;;;;;45.95;19.42;;;;;;;22.45;50.66;100315.59;7386040;19;20022;-53
2021/11/13 11:07:30;;;;;;;44.63;20.73;;;;;;;22.54;51.11;100313.97;7383240;19;20533;-52
2021/11/13 11:10:21;;;;;;;48.47;20.15;;;;;;;22.62;52.61;100312.31;7385387;19;20044;-53
2021/11/13 11:13:11;;;;;;;33.13;19.30;;;;;;;22.68;52.35;100309.09;7381553;19;20625;-53
2021/11/13 11:15:58;;;;;;;39.78;20.25;;;;;;;22.72;53.64;100307.88;7383362;19;20641;-54
2021/11/13 11:19:02;;;;;;;41.35;20.45;;;;;;;22.70;53.75;100309.84;7383407;19;20033;-54
2021/11/13 11:40:20;;;;;;;40.05;22.27;;;;;;;21.83;51.78;100303.97;7375680;19;20018;-50
2021/11/13 11:43:08;;;;;;;40.95;23.98;;;;;;;21.71;51.83;100294.34;7386810;19;20021;-50
2021/11/13 11:45:56;;;;;;;36.10;23.02;;;;;;;21.66;51.78;100306.38;7387433;19;20111;-48
2021/11/13 11:48:44;;;;;;;34.78;22.63;;;;;;;21.58;50.96;100297.16;7385909;19;20028;-49
2021/11/13 11:54:08;;;;;;;35.38;22.30;;;;;;;21.48;51.02;100287.41;7372397;19;20059;-51
2021/11/13 11:56:59;;;;;;;32.55;21.77;;;;;;;21.47;51.43;100286.56;7388042;19;20111;-54
2021/11/13 11:59:49;;;;;;;33.88;21.52;;;;;;;21.54;50.42;100290.41;7385411;19;20018;-52
2021/11/13 12:05:13;;;;;;;37.42;22.38;;;;;;;21.44;50.06;100292.13;7370554;19;20033;-55
2021/11/13 12:08:16;;;;;;;34.58;21.52;;;;;;;21.36;49.74;100294.59;7385098;19;20107;-52
2021/11/13 12:11:23;;;;;;;32.97;22.27;;;;;;;21.28;50.17;100297.91;7381782;19;20024;-55
2021/11/13 12:14:32;;;;;;;35.50;22.42;;;;;;;21.29;50.16;100288.94;7376223;19;20041;-52
2021/11/13 12:17:35;;;;;;;34.95;23.17;;;;;;;21.24;49.94;100284.97;7371241;19;20025;-54
2021/11/13 12:23:30;;;;;;;33.10;23.05;;;;;;;20.99;49.94;100297.56;7337581;19;20041;-56
2021/11/13 12:26:23;;;;;;;37.42;23.20;;;;;;;21.01;49.61;100290.28;7385584;19;20014;-58
2021/11/13 12:29:16;;;;;;;38.70;23.35;;;;;;;21.02;49.71;100296.47;7379442;19;20036;-59
2021/11/13 12:32:07;;;;;;;35.40;23.77;;;;;;;21.08;49.45;100285.31;7380658;19;20022;-59
2021/11/13 12:34:56;;;;;;;36.38;22.40;;;;;;;21.00;50.27;100285.06;7380260;19;20287;-58
2021/11/13 12:37:44;;;;;;;32.75;21.77;;;;;;;20.96;51.11;100291.63;7382852;19;20021;-58
2021/11/13 12:40:41;;;;;;;34.58;21.75;;;;;;;21.08;51.44;100284.47;7382636;19;20021;-56
2021/11/13 12:43:28;;;;;;;36.75;23.65;;;;;;;21.17;51.23;100279.22;7381657;19;20119;-57
2021/11/13 12:46:26;;;;;;;41.08;25.77;;;;;;;21.25;52.91;100278.66;7383971;19;20368;-56
2021/11/13 12:49:43;;;;;;;40.47;26.02;;;;;;;21.34;52.85;100277.88;7383459;19;20106;-55
2021/11/13 12:52:48;;;;;;;37.20;24.80;;;;;;;21.36;53.81;100273.25;7389927;19;20033;-56
2021/11/13 12:55:40;;;;;;;38.60;26.40;;;;;;;21.37;55.33;100280.28;7389455;19;20379;-58
2021/11/13 12:58:35;;;;;;;36.03;26.63;;;;;;;21.38;55.80;100271.31;7385900;19;20115;-57
2021/11/13 13:01:28;;;;;;;38.72;26.02;;;;;;;21.44;55.32;100278.78;7388706;19;20059;-56
2021/11/13 13:04:16;;;;;;;36.72;26.50;;;;;;;21.39;55.13;100277.50;7387546;19;20055;-58
2021/11/13 13:07:05;;;;;;;37.00;26.70;;;;;;;21.35;55.03;100276.91;7387195;19;20049;-59
2021/11/13 13:09:58;;;;;;;50.63;27.50;;;;;;;21.32;55.03;100277.16;7389133;19;20044;-54
2021/11/13 13:12:45;;;;;;;36.72;25.77;;;;;;;21.34;54.42;100269.88;7386245;19;20056;-54
2021/11/13 13:15:33;;;;;;;35.38;25.48;;;;;;;21.28;54.09;100270.41;7386755;19;20056;-57
2021/11/13 13:18:21;;;;;;;39.97;27.70;;;;;;;21.28;54.38;100265.91;7386097;19;20022;-59
2021/11/13 13:21:09;;;;;;;35.60;25.23;;;;;;;21.22;53.30;100262.84;7386481;19;20034;-55
2021/11/13 13:23:57;;;;;;;43.47;26.48;;;;;;;21.09;53.41;100264.84;7384329;19;20530;-59
2021/11/13 13:26:49;;;;;;;41.80;25.02;;;;;;;21.09;53.31;100264.84;7385917;19;20372;-54
2021/11/13 13:29:37;;;;;;;38.20;25.13;;;;;;;21.04;53.51;100267.06;7383291;19;20107;-53
2021/11/13 13:32:26;;;;;;;38.33;26.38;;;;;;;21.07;53.83;100272.13;7385630;19;20017;-49
2021/11/13 13:35:16;;;;;;;35.92;24.95;;;;;;;21.12;53.45;100267.25;7386059;19;20048;-61
2021/11/13 13:38:06;;;;;;;41.15;25.30;;;;;;;21.06;53.74;100262.44;7388443;19;20388;-55
2021/11/13 13:40:57;;;;;;;36.70;25.13;;;;;;;21.06;54.06;100262.44;7388152;19;20029;-59
2021/11/13 13:43:50;;;;;;;39.80;25.48;;;;;;;21.05;53.79;100263.41;7384906;19;20048;-53
2021/11/13 13:46:43;;;;;;;40.58;24.42;;;;;;;21.05;53.81;100263.41;7385248;19;20021;-53
2021/11/13 13:49:32;;;;;;;36.08;24.95;;;;;;;21.09;53.86;100257.69;7383396;19;20119;-51
2021/11/13 13:52:23;;;;;;;49.30;28.55;;;;;;;21.12;53.63;100259.25;7384595;19;20105;-50
2021/11/13 13:55:17;;;;;;;65.38;31.85;;;;;;;21.17;53.98;100262.38;7385420;19;20356;-54
2021/11/13 13:58:10;;;;;;;112.05;47.50;;;;;;;21.27;55.56;100263.38;7384309;19;20037;-53
2021/11/13 14:01:01;;;;;;;140.07;55.88;;;;;;;21.41;56.35;100267.53;7384607;19;20100;-55
2021/11/13 14:03:49;;;;;;;156.20;60.40;;;;;;;21.47;57.10;100267.91;7383449;19;20025;-56
2021/11/13 14:06:38;;;;;;;111.80;48.78;;;;;;;21.52;56.29;100268.34;7384256;19;20107;-50
2021/11/13 14:09:26;;;;;;;88.72;42.47;;;;;;;21.49;55.64;100273.94;7381300;19;20042;-53
2021/11/13 14:12:13;;;;;;;89.60;40.45;;;;;;;21.57;57.40;100257.28;7385168;19;20374;-51
2021/11/13 14:15:12;;;;;;;96.10;41.25;;;;;;;21.61;57.62;100262.22;7385006;19;20030;-51
2021/11/13 14:18:04;;;;;;;70.68;38.15;;;;;;;21.66;58.18;100263.69;7382766;19;20442;-56
2021/11/13 14:20:52;;;;;;;85.47;41.50;;;;;;;21.69;58.75;100264.28;7384658;19;20056;-57
2021/11/13 14:23:43;;;;;;;70.90;40.17;;;;;;;21.73;60.49;100263.03;7382787;19;20048;-56
2021/11/13 14:26:31;;;;;;;;;;;;;;;21.76;58.76;100257.44;7384862;19;20033;-56
2021/11/13 14:29:21;;;;;;;84.70;42.47;;;;;;;21.87;62.16;100268.06;7383181;19;19968;-55
2021/11/13 14:32:13;;;;;;;74.93;42.13;;;;;;;21.94;63.33;100260.34;7385007;19;20025;-54
2021/11/13 14:35:14;;;;;;;71.78;41.78;;;;;;;21.98;63.22;100255.59;7384213;19;20501;-54
2021/11/13 14:38:02;;;;;;;61.53;35.00;;;;;;;21.85;58.81;100259.31;7382859;19;20105;-51
2021/11/13 14:41:01;;;;;;;49.15;32.05;;;;;;;21.67;52.41;100257.38;7383767;19;20021;-52
2021/11/13 14:43:49;;;;;;;50.63;34.08;;;;;;;20.92;53.25;100258.22;7382245;19;20033;-50